Time;durP1;ratioP1;P1;durP2;ratioP2;P2;SDS_P1;SDS_P2;PMS_P1;PMS_P2;Temp;Humidity;BMP_temperature;BMP_pressure;BME280_temperature;BME280_humidity;BME280_pressure;Samples;Min_cycle;Max_cycle;Signal;HPM_P1;HPM_P2
2024/03/07 00:02:18;;;;;;;7.30;2.22;;;;;;;;;;4962423;28;20065;-79
2024/03/07 00:04:44;;;;;;;6.93;2.10;;;;;;;;;;4988810;28;20025;-79
2024/03/07 00:07:11;;;;;;;7.95;2.28;;;;;;;;;;4985952;28;20029;-77
2024/03/07 00:09:37;;;;;;;10.23;2.47;;;;;;;;;;4970043;28;20048;-77
2024/03/07 00:12:03;;;;;;;7.65;2.08;;;;;;;;;;4962372;28;20037;-77
2024/03/07 00:14:30;;;;;;;7.88;2.22;;;;;;;;;;4990856;28;20037;-77
2024/03/07 00:16:56;;;;;;;6.80;2.17;;;;;;;;;;4974035;28;20118;-77
2024/03/07 00:19:26;;;;;;;8.18;2.00;;;;;;;;;;4967592;28;20398;-76
2024/03/07 00:21:55;;;;;;;7.53;2.10;;;;;;;;;;4966511;28;20753;-78
2024/03/07 00:24:22;;;;;;;6.60;2.28;;;;;;;;;;4984400;28;20034;-77
2024/03/07 00:26:51;;;;;;;7.65;2.20;;;;;;;;;;4984126;28;20407;-77
2024/03/07 00:29:18;;;;;;;7.22;2.10;;;;;;;;;;4985463;28;20148;-79
2024/03/07 00:31:45;;;;;;;;;;;;;;;;;;4985509;28;20456;-77
2024/03/07 00:34:11;;;;;;;5.32;1.70;;;;;;;;;;4963293;28;19913;-77
2024/03/07 00:36:38;;;;;;;8.27;1.92;;;;;;;;;;4973119;28;20034;-77
2024/03/07 00:39:04;;;;;;;7.28;1.90;;;;;;;;;;4964188;28;20035;-77
2024/03/07 00:41:34;;;;;;;6.88;1.95;;;;;;;;;;4983694;28;20052;-78
2024/03/07 00:44:00;;;;;;;8.15;1.90;;;;;;;;;;4964881;28;20025;-78
2024/03/07 00:46:26;;;;;;;;;;;;;;;;;;4986210;28;20025;-78
2024/03/07 00:48:52;;;;;;;7.57;1.90;;;;;;;;;;4982761;28;20484;-77
2024/03/07 00:51:18;;;;;;;5.93;1.55;;;;;;;;;;4983161;28;20033;-78
2024/03/07 00:53:44;;;;;;;6.28;1.70;;;;;;;;;;4971701;28;20143;-77
2024/03/07 00:56:10;;;;;;;5.35;1.85;;;;;;;;;;4981899;28;20401;-77
2024/03/07 00:58:37;;;;;;;6.32;1.77;;;;;;;;;;4966490;28;20048;-76
2024/03/07 01:01:03;;;;;;;6.18;1.77;;;;;;;;;;4966282;28;20037;-77
2024/03/07 01:03:29;;;;;;;;;;;;;;;;;;4969023;28;20030;-77
2024/03/07 01:05:55;;;;;;;6.60;1.50;;;;;;;;;;4967308;28;20080;-77
2024/03/07 01:08:21;;;;;;;5.32;1.40;;;;;;;;;;4972487;28;20049;-77
2024/03/07 01:10:48;;;;;;;7.30;1.77;;;;;;;;;;4989315;28;20689;-77
2024/03/07 01:13:19;;;;;;;4.38;1.40;;;;;;;;;;4971030;28;20757;-78
2024/03/07 01:15:45;;;;;;;5.93;1.38;;;;;;;;;;4975432;28;20635;-77
2024/03/07 01:18:12;;;;;;;5.60;1.60;;;;;;;;;;4972211;28;20048;-77
2024/03/07 01:20:38;;;;;;;5.00;1.33;;;;;;;;;;4990941;28;20045;-78
2024/03/07 01:23:05;;;;;;;5.57;1.33;;;;;;;;;;4969165;28;20038;-78
2024/03/07 01:25:33;;;;;;;6.35;1.55;;;;;;;;;;4990011;28;20032;-77
2024/03/07 01:28:00;;;;;;;6.22;1.60;;;;;;;;;;4971661;28;20028;-77
2024/03/07 01:30:28;;;;;;;4.30;1.33;;;;;;;;;;4992214;28;20457;-77
2024/03/07 01:32:54;;;;;;;5.70;1.58;;;;;;;;;;4971183;28;20068;-78
2024/03/07 01:35:21;;;;;;;6.05;1.40;;;;;;;;;;4970198;28;20037;-78
2024/03/07 01:37:47;;;;;;;4.28;1.25;;;;;;;;;;4992774;28;20032;-77
2024/03/07 01:40:14;;;;;;;5.43;1.17;;;;;;;;;;4990277;28;20042;-77
2024/03/07 01:42:40;;;;;;;6.82;1.30;;;;;;;;;;4976664;28;20057;-77
2024/03/07 01:45:08;;;;;;;;;;;;;;;;;;4989564;28;20059;-76
2024/03/07 01:47:36;;;;;;;9.43;3.08;;;;;;;;;;4980697;28;19919;-77
2024/03/07 01:50:03;;;;;;;12.85;5.90;;;;;;;;;;4970287;28;20049;-77
2024/03/07 01:52:30;;;;;;;16.17;8.95;;;;;;;;;;4980789;28;20156;-76
2024/03/07 01:54:56;;;;;;;15.80;8.93;;;;;;;;;;4990692;28;20135;-79
2024/03/07 01:57:22;;;;;;;14.98;7.20;;;;;;;;;;4974353;28;20060;-77
2024/03/07 01:59:50;;;;;;;11.10;4.20;;;;;;;;;;4990284;28;20642;-78
2024/03/07 02:02:17;;;;;;;6.85;2.42;;;;;;;;;;4985642;28;20156;-77
2024/03/07 02:04:44;;;;;;;5.35;2.03;;;;;;;;;;4973284;28;20046;-78
2024/03/07 02:07:11;;;;;;;6.55;1.58;;;;;;;;;;4970450;28;20033;-78
2024/03/07 02:09:38;;;;;;;5.13;1.45;;;;;;;;;;4991622;28;20038;-77
2024/03/07 02:12:04;;;;;;;5.53;1.45;;;;;;;;;;4970390;28;20046;-77
2024/03/07 02:14:30;;;;;;;3.90;1.35;;;;;;;;;;4980516;28;20040;-77
2024/03/07 02:16:56;;;;;;;5.10;1.52;;;;;;;;;;4991226;28;20044;-77
2024/03/07 02:19:23;;;;;;;5.28;1.30;;;;;;;;;;4975794;28;21661;-77
2024/03/07 02:21:49;;;;;;;6.25;1.40;;;;;;;;;;4987026;28;20622;-76
2024/03/07 02:24:15;;;;;;;4.53;1.15;;;;;;;;;;4969919;28;20037;-76
2024/03/07 02:26:42;;;;;;;5.50;1.20;;;;;;;;;;4985854;28;20025;-78
2024/03/07 02:29:08;;;;;;;4.35;1.25;;;;;;;;;;4968075;28;20025;-77
2024/03/07 02:31:37;;;;;;;5.15;1.40;;;;;;;;;;4971566;28;20083;-78
2024/03/07 02:34:03;;;;;;;4.38;1.20;;;;;;;;;;4966842;28;20037;-77
2024/03/07 02:36:30;;;;;;;4.70;1.33;;;;;;;;;;4968696;28;20616;-77
2024/03/07 02:38:56;;;;;;;4.50;1.10;;;;;;;;;;4967937;28;20935;-76
2024/03/07 02:41:22;;;;;;;3.17;1.05;;;;;;;;;;4976806;28;20056;-76
2024/03/07 02:43:48;;;;;;;3.38;1.17;;;;;;;;;;4982113;28;20032;-76
2024/03/07 02:46:14;;;;;;;5.82;1.40;;;;;;;;;;4966612;28;20029;-78
2024/03/07 02:48:41;;;;;;;4.82;1.25;;;;;;;;;;4967070;28;20057;-78
2024/03/07 02:51:07;;;;;;;4.07;1.20;;;;;;;;;;4985072;28;20029;-78
2024/03/07 02:53:33;;;;;;;3.17;1.10;;;;;;;;;;4988620;28;20061;-78
2024/03/07 02:55:59;;;;;;;4.47;1.13;;;;;;;;;;4967352;28;20030;-78
2024/03/07 02:58:25;;;;;;;3.33;1.10;;;;;;;;;;4974186;28;20501;-79
2024/03/07 03:01:01;;;;;;;5.22;1.05;;;;;;;;;;4970287;28;20029;-78
2024/03/07 03:03:27;;;;;;;5.22;1.15;;;;;;;;;;4972047;28;20087;-78
2024/03/07 03:05:53;;;;;;;;;;;;;;;;;;4988667;28;20073;-78
2024/03/07 03:08:20;;;;;;;4.65;1.20;;;;;;;;;;4968610;28;19933;-78
2024/03/07 03:10:46;;;;;;;;;;;;;;;;;;4987347;28;20033;-78
2024/03/07 03:13:12;;;;;;;5.32;1.40;;;;;;;;;;4966698;28;19963;-78
2024/03/07 03:15:38;;;;;;;4.38;1.30;;;;;;;;;;4987715;28;20786;-78
2024/03/07 03:18:05;;;;;;;5.22;1.63;;;;;;;;;;4982113;28;20831;-78
2024/03/07 03:20:35;;;;;;;5.20;1.30;;;;;;;;;;4968412;28;20643;-78
2024/03/07 03:23:05;;;;;;;4.72;1.25;;;;;;;;;;4984683;28;20038;-79
2024/03/07 03:25:34;;;;;;;5.38;1.20;;;;;;;;;;4967334;28;20034;-78
2024/03/07 03:28:04;;;;;;;4.85;1.20;;;;;;;;;;4966186;28;20038;-78
2024/03/07 03:30:30;;;;;;;4.95;1.30;;;;;;;;;;4967105;28;21554;-77
2024/03/07 03:32:56;;;;;;;6.10;1.23;;;;;;;;;;4984320;28;20103;-76
2024/03/07 03:35:22;;;;;;;3.58;1.20;;;;;;;;;;4966878;28;20036;-77
2024/03/07 03:37:49;;;;;;;4.78;1.30;;;;;;;;;;4969920;28;20426;-76
2024/03/07 03:40:15;;;;;;;5.32;1.35;;;;;;;;;;4967863;28;20487;-77
2024/03/07 03:42:42;;;;;;;5.28;1.50;;;;;;;;;;4970948;28;20030;-77
2024/03/07 03:45:14;;;;;;;4.43;1.58;;;;;;;;;;4965321;28;20026;-78
2024/03/07 03:47:43;;;;;;;5.25;1.80;;;;;;;;;;4968622;28;20909;-77
2024/03/07 03:50:10;;;;;;;5.65;1.50;;;;;;;;;;4967704;28;20077;-78
2024/03/07 03:52:37;;;;;;;6.22;1.65;;;;;;;;;;4985895;28;20033;-78
2024/03/07 03:55:05;;;;;;;6.95;1.73;;;;;;;;;;4982960;28;20104;-79
2024/03/07 03:57:32;;;;;;;4.70;1.20;;;;;;;;;;4968988;28;20033;-77
2024/03/07 03:59:58;;;;;;;;;;;;;;;;;;4965633;28;20029;-78
2024/03/07 04:02:24;;;;;;;5.63;1.55;;;;;;;;;;4970725;28;20317;-77
2024/03/07 04:04:51;;;;;;;;;;;;;;;;;;4986335;28;20683;-77
2024/03/07 04:07:18;;;;;;;5.03;1.50;;;;;;;;;;4971633;28;20569;-84
2024/03/07 04:09:44;;;;;;;4.35;1.20;;;;;;;;;;4973737;28;20848;-84
2024/03/07 04:12:11;;;;;;;3.40;1.20;;;;;;;;;;4988083;28;20021;-83
2024/03/07 04:14:40;;;;;;;3.97;1.20;;;;;;;;;;4986387;28;20115;-82
2024/03/07 04:17:13;;;;;;;5.00;1.20;;;;;;;;;;4970793;28;20034;-84
2024/03/07 04:19:43;;;;;;;5.75;1.15;;;;;;;;;;4991636;28;20041;-82
2024/03/07 04:22:09;;;;;;;4.07;1.10;;;;;;;;;;4971175;28;20323;-82
2024/03/07 04:24:36;;;;;;;5.95;1.30;;;;;;;;;;4973284;28;20034;-83
2024/03/07 04:27:05;;;;;;;4.70;1.20;;;;;;;;;;4972508;28;20037;-82
2024/03/07 04:29:32;;;;;;;4.57;1.40;;;;;;;;;;4993753;28;20028;-82
2024/03/07 04:31:58;;;;;;;3.85;1.10;;;;;;;;;;4973038;28;20129;-83
2024/03/07 04:34:25;;;;;;;4.35;1.17;;;;;;;;;;4982743;28;20029;-82
2024/03/07 04:36:51;;;;;;;3.05;1.10;;;;;;;;;;4975526;28;20143;-83
2024/03/07 04:39:32;;;;;;;4.65;1.20;;;;;;;;;;4992209;28;20070;-82
2024/03/07 04:42:02;;;;;;;4.90;1.30;;;;;;;;;;4970963;28;20042;-83
2024/03/07 04:44:32;;;;;;;3.88;1.10;;;;;;;;;;4994806;28;20749;-84
2024/03/07 04:47:00;;;;;;;4.43;1.27;;;;;;;;;;4975959;28;20054;-83
2024/03/07 04:49:27;;;;;;;4.03;1.00;;;;;;;;;;4994280;28;20494;-82
2024/03/07 04:51:54;;;;;;;4.32;1.17;;;;;;;;;;4970697;28;20049;-83
2024/03/07 04:54:20;;;;;;;5.50;1.23;;;;;;;;;;4972486;28;20439;-82
2024/03/07 04:56:47;;;;;;;5.97;1.30;;;;;;;;;;4988817;28;20068;-82
2024/03/07 04:59:13;;;;;;;4.88;1.10;;;;;;;;;;4970474;28;20034;-83
2024/03/07 05:01:40;;;;;;;3.85;1.30;;;;;;;;;;4972882;28;20083;-83
2024/03/07 05:04:06;;;;;;;6.07;1.25;;;;;;;;;;4988912;28;20033;-83
2024/03/07 05:06:33;;;;;;;5.13;1.50;;;;;;;;;;4975713;28;20140;-83
2024/03/07 05:09:08;;;;;;;5.93;1.48;;;;;;;;;;4987128;28;20875;-83
2024/03/07 05:11:34;;;;;;;5.90;1.92;;;;;;;;;;4982998;28;20136;-82
2024/03/07 05:14:01;;;;;;;5.28;1.50;;;;;;;;;;4988698;28;20041;-82
2024/03/07 05:16:31;;;;;;;6.20;1.58;;;;;;;;;;4992011;28;20036;-82
2024/03/07 05:19:00;;;;;;;6.60;1.67;;;;;;;;;;4972310;28;20033;-83
2024/03/07 05:23:59;;;;;;;7.28;1.50;;;;;;;;;;4988867;28;20125;-83
2024/03/07 05:26:26;;;;;;;5.70;1.70;;;;;;;;;;4990547;28;20022;-83
2024/03/07 05:28:54;;;;;;;6.55;1.88;;;;;;;;;;4973109;28;20042;-83
2024/03/07 05:31:20;;;;;;;5.82;2.00;;;;;;;;;;4984189;28;20122;-82
2024/03/07 05:33:47;;;;;;;7.70;1.90;;;;;;;;;;4987213;28;20801;-85
2024/03/07 05:36:16;;;;;;;;;;;;;;;;;;4968198;28;20034;-85
2024/03/07 05:38:45;;;;;;;6.45;1.30;;;;;;;;;;4987385;28;19918;-84
2024/03/07 05:41:12;;;;;;;6.22;1.70;;;;;;;;;;4967557;28;20096;-84
2024/03/07 05:43:38;;;;;;;8.63;1.60;;;;;;;;;;4969717;28;20136;-83
2024/03/07 05:46:06;;;;;;;6.43;1.50;;;;;;;;;;4985400;28;20533;-83
2024/03/07 05:48:33;;;;;;;4.72;1.27;;;;;;;;;;4969970;28;20029;-82
2024/03/07 05:50:59;;;;;;;;;;;;;;;;;;4969491;28;20068;-85
2024/03/07 05:53:25;;;;;;;6.63;1.50;;;;;;;;;;4988978;28;20575;-82
2024/03/07 05:55:51;;;;;;;9.48;2.05;;;;;;;;;;4989374;28;20141;-81
2024/03/07 05:58:19;;;;;;;5.78;1.60;;;;;;;;;;4973519;28;20060;-82
2024/03/07 06:00:51;;;;;;;6.95;1.58;;;;;;;;;;4990407;28;20041;-80
2024/03/07 06:03:20;;;;;;;9.30;1.90;;;;;;;;;;4970157;28;20675;-83
2024/03/07 06:05:48;;;;;;;7.13;1.58;;;;;;;;;;4974055;28;20029;-83
2024/03/07 06:08:17;;;;;;;4.82;1.40;;;;;;;;;;4972889;28;20053;-83
2024/03/07 06:10:43;;;;;;;4.95;1.30;;;;;;;;;;4990860;28;20053;-83
2024/03/07 06:13:11;;;;;;;6.90;1.55;;;;;;;;;;4987864;28;20044;-81
2024/03/07 06:15:38;;;;;;;8.32;1.42;;;;;;;;;;4976730;28;20103;-83
2024/03/07 06:18:04;;;;;;;5.28;1.60;;;;;;;;;;4971969;28;20033;-83
2024/03/07 06:20:31;;;;;;;4.65;1.50;;;;;;;;;;4980591;28;20037;-81
2024/03/07 06:22:58;;;;;;;6.32;1.60;;;;;;;;;;4988535;28;20030;-84
2024/03/07 06:25:36;;;;;;;6.22;1.60;;;;;;;;;;4970677;28;20017;-84
2024/03/07 06:28:10;;;;;;;5.43;1.63;;;;;;;;;;4985607;28;20273;-84
2024/03/07 06:30:37;;;;;;;7.55;1.83;;;;;;;;;;4979520;28;20052;-84
2024/03/07 06:33:04;;;;;;;7.70;1.98;;;;;;;;;;4985971;28;20064;-84
2024/03/07 06:35:30;;;;;;;7.28;1.70;;;;;;;;;;4973232;28;20029;-84
2024/03/07 06:37:56;;;;;;;5.40;1.45;;;;;;;;;;4972756;28;20088;-84
2024/03/07 06:40:23;;;;;;;5.53;1.50;;;;;;;;;;4972537;28;20227;-84
2024/03/07 06:42:49;;;;;;;5.50;1.35;;;;;;;;;;4973732;28;20040;-84
2024/03/07 06:45:15;;;;;;;6.60;1.40;;;;;;;;;;4988187;28;20046;-84
2024/03/07 06:47:42;;;;;;;7.90;1.60;;;;;;;;;;4972876;28;20045;-84
2024/03/07 06:50:09;;;;;;;5.00;1.48;;;;;;;;;;4968889;28;20037;-84
2024/03/07 06:52:35;;;;;;;5.80;1.42;;;;;;;;;;4974509;28;20028;-84
2024/03/07 06:55:07;;;;;;;5.20;1.20;;;;;;;;;;4968588;28;20037;-84
2024/03/07 06:57:34;;;;;;;4.60;1.20;;;;;;;;;;4989671;28;20029;-84
2024/03/07 07:00:00;;;;;;;6.53;1.48;;;;;;;;;;4971090;28;20034;-84
2024/03/07 07:02:27;;;;;;;7.55;1.60;;;;;;;;;;4977699;28;20148;-84
2024/03/07 07:04:54;;;;;;;6.18;2.00;;;;;;;;;;4969256;28;20045;-83
2024/03/07 07:07:20;;;;;;;5.88;1.73;;;;;;;;;;4970167;28;20096;-83
2024/03/07 07:09:46;;;;;;;6.80;2.10;;;;;;;;;;4989755;28;20050;-84
2024/03/07 07:12:14;;;;;;;6.95;1.75;;;;;;;;;;4986207;28;20974;-84
2024/03/07 07:14:40;;;;;;;5.43;1.60;;;;;;;;;;4977991;28;20049;-83
2024/03/07 07:17:07;;;;;;;7.40;1.63;;;;;;;;;;4966813;28;20064;-83
2024/03/07 07:19:33;;;;;;;;;;;;;;;;;;4991081;28;20129;-83
2024/03/07 07:22:00;;;;;;;6.65;1.65;;;;;;;;;;4975224;28;19955;-82
2024/03/07 07:24:27;;;;;;;6.43;1.60;;;;;;;;;;4975417;28;20127;-83
2024/03/07 07:26:54;;;;;;;6.30;1.60;;;;;;;;;;4987863;28;20091;-83
2024/03/07 07:29:20;;;;;;;6.63;1.75;;;;;;;;;;4985614;28;20706;-83
2024/03/07 07:31:46;;;;;;;5.00;1.60;;;;;;;;;;4969322;28;20068;-83
2024/03/07 07:34:12;;;;;;;9.77;2.33;;;;;;;;;;4982792;28;20040;-84
2024/03/07 07:36:38;;;;;;;6.90;2.00;;;;;;;;;;4988789;28;20037;-84
2024/03/07 07:39:04;;;;;;;8.48;2.58;;;;;;;;;;4968310;28;20237;-82
2024/03/07 07:41:31;;;;;;;7.38;2.17;;;;;;;;;;4970737;28;20384;-84
2024/03/07 07:43:57;;;;;;;7.45;2.05;;;;;;;;;;4974319;28;20033;-82
2024/03/07 07:46:23;;;;;;;7.53;1.80;;;;;;;;;;4976129;28;20033;-83
2024/03/07 07:48:49;;;;;;;6.20;1.40;;;;;;;;;;4996167;28;20039;-81
2024/03/07 07:51:15;;;;;;;7.47;1.70;;;;;;;;;;4996230;28;20029;-83
2024/03/07 07:53:41;;;;;;;7.13;1.52;;;;;;;;;;4998577;28;20115;-82
2024/03/07 07:56:08;;;;;;;5.40;1.23;;;;;;;;;;4995398;28;20044;-83
2024/03/07 07:58:34;;;;;;;6.60;1.50;;;;;;;;;;5004363;28;20025;-84
2024/03/07 08:01:00;;;;;;;5.10;1.33;;;;;;;;;;4983190;28;20034;-83
2024/03/07 08:03:26;;;;;;;5.20;1.23;;;;;;;;;;4973520;28;20115;-83
2024/03/07 08:05:54;;;;;;;5.43;1.27;;;;;;;;;;4991371;28;20525;-83
2024/03/07 08:08:21;;;;;;;5.38;1.35;;;;;;;;;;4987208;28;20041;-83
2024/03/07 08:10:48;;;;;;;7.00;1.35;;;;;;;;;;4982950;28;20088;-83
2024/03/07 08:13:14;;;;;;;8.68;1.50;;;;;;;;;;4977453;28;20025;-82
2024/03/07 08:15:41;;;;;;;;;;;;;;;;;;4993492;28;20616;-82
2024/03/07 08:18:11;;;;;;;5.85;1.20;;;;;;;;;;4989989;28;20433;-83
2024/03/07 08:20:37;;;;;;;6.32;1.20;;;;;;;;;;4974772;28;20049;-83
2024/03/07 08:23:03;;;;;;;5.32;1.42;;;;;;;;;;4976192;28;20077;-82
2024/03/07 08:25:30;;;;;;;6.05;1.60;;;;;;;;;;4991903;28;20025;-82
2024/03/07 08:27:56;;;;;;;;;;;;;;;;;;4978835;28;20033;-83
2024/03/07 08:30:22;;;;;;;4.13;1.05;;;;;;;;;;4980619;28;19917;-83
2024/03/07 08:32:52;;;;;;;4.97;1.10;;;;;;;;;;4973917;28;20508;-83
2024/03/07 08:35:19;;;;;;;5.50;1.10;;;;;;;;;;4972575;28;20087;-82
2024/03/07 08:37:55;;;;;;;6.75;1.40;;;;;;;;;;4977302;28;20033;-82
2024/03/07 08:40:21;;;;;;;;;;;;;;;;;;4995856;28;20052;-84
2024/03/07 08:42:51;;;;;;;5.15;1.05;;;;;;;;;;4996017;28;19909;-83
2024/03/07 08:45:21;;;;;;;7.50;1.23;;;;;;;;;;4976836;28;21831;-85
2024/03/07 08:47:49;;;;;;;8.85;1.48;;;;;;;;;;4981048;28;20396;-84
2024/03/07 08:50:17;;;;;;;5.60;1.20;;;;;;;;;;4976337;28;20045;-83
2024/03/07 08:52:44;;;;;;;5.40;1.10;;;;;;;;;;4995126;28;20017;-83
2024/03/07 08:55:17;;;;;;;5.13;1.20;;;;;;;;;;4991347;28;20577;-84
2024/03/07 08:57:45;;;;;;;8.00;1.35;;;;;;;;;;4973040;28;20036;-83
2024/03/07 09:00:21;;;;;;;6.22;1.05;;;;;;;;;;4991186;28;20472;-84
2024/03/07 09:02:50;;;;;;;6.70;1.25;;;;;;;;;;4977880;28;20041;-84
2024/03/07 09:05:16;;;;;;;5.00;1.13;;;;;;;;;;4970922;28;20025;-84
2024/03/07 09:07:42;;;;;;;6.32;1.20;;;;;;;;;;4979121;28;20805;-84
2024/03/07 09:10:10;;;;;;;;;;;;;;;;;;4971706;28;20073;-83
2024/03/07 09:12:36;;;;;;;6.65;1.40;;;;;;;;;;4972311;28;20391;-83
2024/03/07 09:15:03;;;;;;;;;;;;;;;;;;4980204;28;20103;-84
2024/03/07 09:17:29;;;;;;;6.22;1.10;;;;;;;;;;4992451;28;19913;-83
2024/03/07 09:19:55;;;;;;;5.45;1.30;;;;;;;;;;4974957;28;20034;-83
2024/03/07 09:22:22;;;;;;;5.90;1.38;;;;;;;;;;4974264;28;20033;-83
2024/03/07 09:24:48;;;;;;;5.85;1.42;;;;;;;;;;4993103;28;20514;-83
2024/03/07 09:27:19;;;;;;;7.22;1.30;;;;;;;;;;4991980;28;20026;-83
2024/03/07 09:29:47;;;;;;;6.60;1.52;;;;;;;;;;4997072;28;20029;-84
2024/03/07 09:32:14;;;;;;;8.73;1.60;;;;;;;;;;4991424;28;20037;-82
2024/03/07 09:34:40;;;;;;;4.90;1.55;;;;;;;;;;4976230;28;20033;-83
2024/03/07 09:37:10;;;;;;;5.43;1.20;;;;;;;;;;4990761;28;20038;-84
2024/03/07 09:39:36;;;;;;;5.57;1.60;;;;;;;;;;4977860;28;20036;-84
2024/03/07 09:42:09;;;;;;;5.03;1.40;;;;;;;;;;4972123;28;20034;-84
2024/03/07 09:44:39;;;;;;;6.68;1.50;;;;;;;;;;4996523;28;20742;-84
2024/03/07 09:47:06;;;;;;;5.90;1.58;;;;;;;;;;4992309;28;20026;-83
2024/03/07 09:49:36;;;;;;;6.80;1.83;;;;;;;;;;4986551;28;20038;-83
2024/03/07 09:52:04;;;;;;;7.88;2.15;;;;;;;;;;4978005;28;20108;-84
2024/03/07 09:54:30;;;;;;;7.78;2.10;;;;;;;;;;4977082;28;20135;-84
2024/03/07 09:57:02;;;;;;;6.93;1.80;;;;;;;;;;4993934;28;20033;-84
2024/03/07 09:59:29;;;;;;;7.45;2.08;;;;;;;;;;4993880;28;20044;-83
2024/03/07 10:01:56;;;;;;;9.40;2.40;;;;;;;;;;4991814;28;20072;-84
2024/03/07 10:04:48;;;;;;;5.72;1.58;;;;;;;;;;4977499;28;20601;-84
2024/03/07 10:07:16;;;;;;;4.75;1.42;;;;;;;;;;4974643;28;20044;-84
2024/03/07 10:09:42;;;;;;;6.22;1.58;;;;;;;;;;4975848;28;20469;-84
2024/03/07 10:12:18;;;;;;;7.28;1.30;;;;;;;;;;4971561;28;20125;-83
2024/03/07 10:14:51;;;;;;;9.27;1.92;;;;;;;;;;4993236;28;20049;-84
2024/03/07 10:17:18;;;;;;;7.00;1.42;;;;;;;;;;4974852;28;20674;-84
2024/03/07 10:19:50;;;;;;;5.82;1.30;;;;;;;;;;4977985;28;20045;-83
2024/03/07 10:22:18;;;;;;;7.47;1.33;;;;;;;;;;4978663;28;20033;-86
2024/03/07 10:24:50;;;;;;;6.75;1.40;;;;;;;;;;4999988;28;20036;-85
2024/03/07 10:27:18;;;;;;;5.72;1.20;;;;;;;;;;4975685;28;20093;-84
2024/03/07 10:29:46;;;;;;;5.90;1.30;;;;;;;;;;4986831;28;20041;-87
2024/03/07 10:32:13;;;;;;;5.28;1.33;;;;;;;;;;4999677;28;20035;-86
2024/03/07 10:34:39;;;;;;;6.75;1.17;;;;;;;;;;5008506;28;20097;-87
2024/03/07 10:37:09;;;;;;;6.35;1.40;;;;;;;;;;4998132;28;20622;-88
2024/03/07 10:39:35;;;;;;;7.47;1.40;;;;;;;;;;5009668;28;20477;-85
2024/03/07 10:42:05;;;;;;;8.15;1.63;;;;;;;;;;4987822;28;20030;-87
2024/03/07 10:44:31;;;;;;;6.57;1.60;;;;;;;;;;5004946;28;20046;-87
2024/03/07 10:47:03;;;;;;;7.68;1.77;;;;;;;;;;4989237;28;20025;-87
2024/03/07 10:49:32;;;;;;;6.28;1.63;;;;;;;;;;5004608;28;20025;-87
2024/03/07 10:52:11;;;;;;;6.78;1.70;;;;;;;;;;5002467;28;20965;-88
2024/03/07 10:54:46;;;;;;;6.80;1.77;;;;;;;;;;5006288;28;20041;-87
2024/03/07 10:57:32;;;;;;;7.30;1.70;;;;;;;;;;4985192;28;20038;-86
2024/03/07 11:00:01;;;;;;;6.20;1.60;;;;;;;;;;4995479;28;20087;-87
2024/03/07 11:02:34;;;;;;;7.07;1.70;;;;;;;;;;4997785;28;20686;-89
2024/03/07 11:05:00;;;;;;;7.72;1.90;;;;;;;;;;4985566;28;20026;-90
2024/03/07 11:07:27;;;;;;;8.88;2.20;;;;;;;;;;5007354;28;20088;-87
2024/03/07 11:09:55;;;;;;;6.72;1.58;;;;;;;;;;4989408;28;20130;-88
2024/03/07 11:12:27;;;;;;;5.40;1.45;;;;;;;;;;4985710;28;20111;-86
2024/03/07 11:14:54;;;;;;;7.95;1.70;;;;;;;;;;4985083;28;20033;-88
2024/03/07 11:17:22;;;;;;;7.10;1.77;;;;;;;;;;4983131;28;20026;-87
2024/03/07 11:19:49;;;;;;;6.82;1.67;;;;;;;;;;5003266;28;20052;-87
2024/03/07 11:22:32;;;;;;;8.70;1.75;;;;;;;;;;4999587;28;20026;-88
2024/03/07 11:25:10;;;;;;;7.50;1.75;;;;;;;;;;4984167;28;20036;-87
2024/03/07 11:27:39;;;;;;;8.10;1.90;;;;;;;;;;5004620;28;20068;-88
2024/03/07 11:30:08;;;;;;;7.40;1.65;;;;;;;;;;4983922;28;20040;-87
2024/03/07 11:32:44;;;;;;;8.73;1.60;;;;;;;;;;4986967;28;20029;-87
2024/03/07 11:35:14;;;;;;;6.68;1.58;;;;;;;;;;4988073;28;20037;-87
2024/03/07 11:37:43;;;;;;;6.05;1.50;;;;;;;;;;4980204;28;20067;-86
2024/03/07 11:40:17;;;;;;;9.93;1.50;;;;;;;;;;4980429;28;20030;-87
2024/03/07 11:42:46;;;;;;;6.80;1.67;;;;;;;;;;4982718;28;20512;-87
2024/03/07 11:45:20;;;;;;;5.90;1.52;;;;;;;;;;4977935;28;20108;-87
2024/03/07 11:47:46;;;;;;;6.72;1.58;;;;;;;;;;4985007;28;20032;-88
2024/03/07 11:50:13;;;;;;;5.45;1.60;;;;;;;;;;4980861;28;20029;-87
2024/03/07 11:52:44;;;;;;;5.90;1.63;;;;;;;;;;4998619;28;20098;-90
2024/03/07 11:55:11;;;;;;;6.53;1.40;;;;;;;;;;4981729;28;20130;-89
2024/03/07 11:57:37;;;;;;;5.80;1.30;;;;;;;;;;4989918;28;20049;-87
2024/03/07 12:00:10;;;;;;;7.15;1.42;;;;;;;;;;4991817;28;20034;-87
2024/03/07 12:02:37;;;;;;;6.38;1.50;;;;;;;;;;4993661;28;20038;-86
2024/03/07 12:05:05;;;;;;;6.00;1.40;;;;;;;;;;4982995;28;20030;-88
2024/03/07 12:07:31;;;;;;;5.10;1.30;;;;;;;;;;4984371;28;20273;-90
2024/03/07 12:09:59;;;;;;;6.90;1.58;;;;;;;;;;4987112;28;20173;-90
2024/03/07 12:12:27;;;;;;;7.53;1.33;;;;;;;;;;4967298;28;20108;-89
2024/03/07 12:14:54;;;;;;;6.38;1.45;;;;;;;;;;4990350;28;20473;-90
2024/03/07 12:17:24;;;;;;;5.32;1.33;;;;;;;;;;4983763;28;20033;-89
2024/03/07 12:19:53;;;;;;;7.60;2.28;;;;;;;;;;4994028;28;20045;-88
2024/03/07 12:22:23;;;;;;;6.15;1.60;;;;;;;;;;4983770;28;20036;-89
2024/03/07 12:25:02;;;;;;;5.30;1.30;;;;;;;;;;4988032;28;20791;-89
2024/03/07 12:27:29;;;;;;;5.75;1.38;;;;;;;;;;4988145;28;20035;-88
2024/03/07 12:29:56;;;;;;;5.90;1.38;;;;;;;;;;4983094;28;20026;-90
2024/03/07 12:32:24;;;;;;;7.80;1.70;;;;;;;;;;4984577;28;20074;-88
2024/03/07 12:34:52;;;;;;;7.88;2.10;;;;;;;;;;4986243;28;20037;-88
2024/03/07 12:37:23;;;;;;;9.00;3.95;;;;;;;;;;4998521;28;20038;-87
2024/03/07 12:40:00;;;;;;;7.57;1.90;;;;;;;;;;4981706;28;20044;-87
2024/03/07 12:42:31;;;;;;;8.05;1.58;;;;;;;;;;4999368;28;20021;-87
2024/03/07 12:44:59;;;;;;;5.82;1.63;;;;;;;;;;4999965;28;20026;-87
2024/03/07 12:47:28;;;;;;;10.82;1.92;;;;;;;;;;4984760;28;20048;-86
2024/03/07 12:49:56;;;;;;;8.75;1.50;;;;;;;;;;4988361;28;20098;-86
2024/03/07 12:52:24;;;;;;;5.70;1.65;;;;;;;;;;5004459;28;20036;-88
2024/03/07 12:54:51;;;;;;;7.13;1.60;;;;;;;;;;5004400;28;20049;-88
2024/03/07 12:57:18;;;;;;;6.82;1.60;;;;;;;;;;4988754;28;21102;-88
2024/03/07 12:59:44;;;;;;;6.45;1.58;;;;;;;;;;4990167;28;20033;-88
2024/03/07 13:02:12;;;;;;;5.93;1.55;;;;;;;;;;4992626;28;20029;-88
2024/03/07 13:04:38;;;;;;;6.95;1.90;;;;;;;;;;5014607;28;20029;-89
2024/03/07 13:07:05;;;;;;;7.88;1.80;;;;;;;;;;4990725;28;20017;-89
2024/03/07 13:09:32;;;;;;;6.68;1.58;;;;;;;;;;5007942;28;20049;-88
2024/03/07 13:12:03;;;;;;;8.55;1.95;;;;;;;;;;4989004;28;20124;-87
2024/03/07 13:14:35;;;;;;;7.65;1.98;;;;;;;;;;5001508;28;20037;-87
2024/03/07 13:17:03;;;;;;;8.20;1.83;;;;;;;;;;4990078;28;20040;-86
2024/03/07 13:19:29;;;;;;;6.38;1.70;;;;;;;;;;4992790;28;20033;-88
2024/03/07 13:21:56;;;;;;;6.80;2.00;;;;;;;;;;4991497;28;20038;-89
2024/03/07 13:24:23;;;;;;;6.40;1.60;;;;;;;;;;4990966;28;20049;-88
2024/03/07 13:26:49;;;;;;;7.53;1.80;;;;;;;;;;5011098;28;20200;-88
2024/03/07 13:29:15;;;;;;;8.10;2.08;;;;;;;;;;4990787;28;20049;-88
2024/03/07 13:31:44;;;;;;;9.38;2.38;;;;;;;;;;4992665;28;20366;-89
2024/03/07 13:34:13;;;;;;;7.20;1.80;;;;;;;;;;4993913;28;20025;-88
2024/03/07 13:36:43;;;;;;;8.27;2.38;;;;;;;;;;4995437;28;20033;-88
2024/03/07 13:39:13;;;;;;;6.85;2.20;;;;;;;;;;4989094;28;20037;-88
2024/03/07 13:41:40;;;;;;;8.70;2.08;;;;;;;;;;4988297;28;20061;-88
2024/03/07 13:44:06;;;;;;;6.45;1.30;;;;;;;;;;4986400;28;20130;-88
2024/03/07 13:46:33;;;;;;;7.88;1.60;;;;;;;;;;4989870;28;20025;-88
2024/03/07 13:49:16;;;;;;;5.88;1.38;;;;;;;;;;4989354;28;20026;-85
2024/03/07 13:52:03;;;;;;;8.25;2.40;;;;;;;;;;4991502;28;20123;-87
2024/03/07 13:54:33;;;;;;;8.68;1.75;;;;;;;;;;4990115;28;20066;-88
2024/03/07 13:57:19;;;;;;;8.15;1.85;;;;;;;;;;4986827;28;20022;-88
2024/03/07 13:59:59;;;;;;;7.75;2.33;;;;;;;;;;4990233;28;20033;-88
2024/03/07 14:02:49;;;;;;;9.52;2.10;;;;;;;;;;5008805;28;20274;-87
2024/03/07 14:05:34;;;;;;;7.25;2.03;;;;;;;;;;4986008;28;20022;-86
2024/03/07 14:08:19;;;;;;;8.23;2.60;;;;;;;;;;4986879;28;20064;-86
2024/03/07 14:11:03;;;;;;;7.13;1.65;;;;;;;;;;5008935;28;20040;-87
2024/03/07 14:13:35;;;;;;;6.82;1.98;;;;;;;;;;4991229;28;20055;-87
2024/03/07 14:16:16;;;;;;;14.65;6.72;;;;;;;;;;5014256;28;20808;-87
2024/03/07 14:19:01;;;;;;;9.10;3.25;;;;;;;;;;4998241;28;20038;-87
2024/03/07 14:21:39;;;;;;;7.10;1.60;;;;;;;;;;4997346;28;20137;-86
2024/03/07 14:24:23;;;;;;;6.18;1.75;;;;;;;;;;5012111;28;20268;-87
2024/03/07 14:26:53;;;;;;;7.25;2.17;;;;;;;;;;4996480;28;20034;-86
2024/03/07 14:29:19;;;;;;;7.20;2.17;;;;;;;;;;4994033;28;20042;-87
2024/03/07 14:31:49;;;;;;;8.65;2.42;;;;;;;;;;4997366;28;20115;-88
2024/03/07 14:34:17;;;;;;;7.22;2.50;;;;;;;;;;5011438;28;20050;-88
2024/03/07 14:36:51;;;;;;;9.05;2.40;;;;;;;;;;4997550;28;20057;-87
2024/03/07 14:39:22;;;;;;;9.43;3.55;;;;;;;;;;5010043;28;20033;-88
2024/03/07 14:41:57;;;;;;;10.02;3.00;;;;;;;;;;5014486;28;20026;-88
2024/03/07 14:44:26;;;;;;;8.20;2.30;;;;;;;;;;5014957;28;20029;-87
2024/03/07 14:46:54;;;;;;;9.93;4.43;;;;;;;;;;4999420;28;20034;-88
2024/03/07 14:49:20;;;;;;;17.67;4.60;;;;;;;;;;4995323;28;20038;-87
2024/03/07 14:51:49;;;;;;;10.10;3.35;;;;;;;;;;5000688;28;20033;-87
2024/03/07 14:54:15;;;;;;;8.65;2.90;;;;;;;;;;4995061;28;20136;-86
2024/03/07 14:56:42;;;;;;;7.22;2.60;;;;;;;;;;4997275;28;20022;-86
2024/03/07 14:59:08;;;;;;;9.05;2.70;;;;;;;;;;4997779;28;20041;-88